createdAt,value
2018-07-25T00:01:56.936Z,100793.84
2018-07-25T00:04:25.153Z,100804.59
2018-07-25T00:06:53.370Z,100812.78
2018-07-25T00:09:21.608Z,100817.89
2018-07-25T00:11:49.828Z,100814.66
2018-07-25T00:14:18.024Z,100801.53
2018-07-25T00:16:46.216Z,100805.94
2018-07-25T00:19:14.421Z,100805.89
2018-07-25T00:21:42.624Z,100802.80
2018-07-25T00:24:10.828Z,100808.34
2018-07-25T00:26:39.053Z,100811.80
2018-07-25T00:29:07.310Z,100813.59
2018-07-25T00:31:35.543Z,100813.42
2018-07-25T00:34:03.805Z,100814.17
2018-07-25T00:36:32.073Z,100815.44
2018-07-25T00:39:00.273Z,100815.05
2018-07-25T00:41:28.480Z,100813.09
2018-07-25T00:43:56.708Z,100811.42
2018-07-25T00:46:24.936Z,100807.06
2018-07-25T00:48:53.160Z,100812.20
2018-07-25T00:51:21.361Z,100807.31
2018-07-25T00:53:49.579Z,100819.09
2018-07-25T00:56:17.785Z,100815.17
2018-07-25T00:58:45.996Z,100811.98
2018-07-25T01:01:14.224Z,100803.25
2018-07-25T01:03:42.433Z,100814.98
2018-07-25T01:06:10.652Z,100813.24
2018-07-25T01:08:38.865Z,100814.50
2018-07-25T01:11:07.073Z,100810.39
2018-07-25T01:13:35.693Z,100810.39
2018-07-25T01:16:03.961Z,100805.81
2018-07-25T01:18:32.170Z,100814.97
2018-07-25T01:21:00.369Z,100818.72
2018-07-25T01:23:28.580Z,100818.11
2018-07-25T01:25:56.848Z,100821.85
2018-07-25T01:28:25.060Z,100820.20
2018-07-25T01:30:53.284Z,100821.23
2018-07-25T01:33:21.492Z,100818.66
2018-07-25T01:35:49.752Z,100809.48
2018-07-25T01:38:17.982Z,100823.40
2018-07-25T01:40:46.228Z,100819.04
2018-07-25T01:43:14.470Z,100823.83
2018-07-25T01:45:42.688Z,100822.57
2018-07-25T01:48:10.952Z,100818.95
2018-07-25T01:50:39.188Z,100829.36
2018-07-25T01:53:07.411Z,100816.13
2018-07-25T01:55:35.616Z,100831.29
2018-07-25T01:58:03.848Z,100827.48
2018-07-25T02:00:32.083Z,100831.84
2018-07-25T02:03:00.300Z,100840.40
2018-07-25T02:05:28.510Z,100839.88
2018-07-25T02:07:56.713Z,100844.77
2018-07-25T02:10:24.936Z,100842.80
2018-07-25T02:12:53.158Z,100844.57
2018-07-25T02:15:21.387Z,100841.25
2018-07-25T02:17:49.609Z,100840.73
2018-07-25T02:20:17.848Z,100846.04
2018-07-25T02:22:46.050Z,100844.28
2018-07-25T02:25:14.268Z,100848.27
2018-07-25T02:27:42.473Z,100850.52
2018-07-25T02:30:10.689Z,100848.64
2018-07-25T02:32:38.961Z,100857.27
2018-07-25T02:35:07.172Z,100855.02
2018-07-25T02:37:35.452Z,100862.62
2018-07-25T02:40:03.790Z,100857.44
2018-07-25T02:42:32.196Z,100859.25
2018-07-25T02:45:00.342Z,100862.02
2018-07-25T02:47:28.577Z,100863.16
2018-07-25T02:49:56.801Z,100867.20
2018-07-25T02:52:25.045Z,100869.48
2018-07-25T02:54:53.272Z,100873.74
2018-07-25T02:57:21.501Z,100878.63
2018-07-25T02:59:49.758Z,100882.67
2018-07-25T03:02:17.980Z,100883.50
2018-07-25T03:04:46.206Z,100884.69
2018-07-25T03:07:14.434Z,100887.70
2018-07-25T03:09:42.636Z,100886.27
2018-07-25T03:12:10.847Z,100886.06
2018-07-25T03:14:39.107Z,100885.85
2018-07-25T03:17:07.644Z,100889.17
2018-07-25T03:19:35.984Z,100887.09
2018-07-25T03:22:04.225Z,100891.45
2018-07-25T03:24:32.468Z,100889.70
2018-07-25T03:27:00.708Z,100883.88
2018-07-25T03:29:28.921Z,100877.14
2018-07-25T03:31:57.148Z,100889.59
2018-07-25T03:34:25.344Z,100887.03
2018-07-25T03:36:53.601Z,100889.83
2018-07-25T03:39:22.261Z,100887.14
2018-07-25T03:41:50.496Z,100888.80
2018-07-25T03:44:18.720Z,100892.63
2018-07-25T03:46:46.936Z,100888.92
2018-07-25T03:49:15.137Z,100891.31
2018-07-25T03:51:43.346Z,100889.55
2018-07-25T03:54:11.568Z,100889.03
2018-07-25T03:56:39.796Z,100891.94
2018-07-25T03:59:08.020Z,100888.82
2018-07-25T04:01:36.248Z,100885.81
2018-07-25T04:04:05.196Z,100896.71
2018-07-25T04:06:33.488Z,100897.02
2018-07-25T04:09:01.706Z,100899.61
2018-07-25T04:11:29.936Z,100900.95
2018-07-25T04:13:58.152Z,100901.71
2018-07-25T04:16:26.361Z,100903.67
2018-07-25T04:18:54.573Z,100899.11
2018-07-25T04:21:22.804Z,100900.88
2018-07-25T04:23:51.049Z,100891.52
2018-07-25T04:26:19.252Z,100885.63
2018-07-25T04:28:47.475Z,100905.94
2018-07-25T04:31:15.700Z,100907.28
2018-07-25T04:33:43.928Z,100899.20
2018-07-25T04:36:12.188Z,100904.38
2018-07-25T04:38:40.400Z,100907.39
2018-07-25T04:41:08.640Z,100908.84
2018-07-25T04:43:36.843Z,100914.24
2018-07-25T04:46:05.150Z,100917.66
2018-07-25T04:48:33.384Z,100921.72
2018-07-25T04:51:01.616Z,100917.35
2018-07-25T04:53:29.824Z,100917.88
2018-07-25T04:55:58.248Z,100928.45
2018-07-25T04:58:27.608Z,100927.42
2018-07-25T05:00:56.316Z,100922.86
2018-07-25T05:03:24.520Z,100932.92
2018-07-25T05:05:52.741Z,100928.98
2018-07-25T05:08:20.951Z,100934.38
2018-07-25T05:10:49.173Z,100937.59
2018-07-25T05:13:17.388Z,100944.86
2018-07-25T05:15:45.620Z,100943.51
2018-07-25T05:18:13.887Z,100941.02
2018-07-25T05:20:42.102Z,100945.17
2018-07-25T05:23:10.341Z,100942.36
2018-07-25T05:25:38.555Z,100942.57
2018-07-25T05:28:06.796Z,100947.66
2018-07-25T05:30:36.304Z,100947.86
2018-07-25T05:33:04.589Z,100963.52
2018-07-25T05:35:32.808Z,100958.95
2018-07-25T05:38:01.035Z,100964.77
2018-07-25T05:40:29.252Z,100968.72
2018-07-25T05:42:57.512Z,100966.42
2018-07-25T05:45:25.798Z,100972.70
2018-07-25T05:47:54.076Z,100971.77
2018-07-25T05:50:22.289Z,100972.17
2018-07-25T05:52:50.512Z,100979.97
2018-07-25T05:55:18.736Z,100981.00
2018-07-25T05:57:46.970Z,100980.89
2018-07-25T06:00:15.195Z,100984.52
2018-07-25T06:02:43.415Z,100989.20
2018-07-25T06:05:11.649Z,100986.13
2018-07-25T06:07:39.880Z,100992.27
2018-07-25T06:10:08.162Z,100988.30
2018-07-25T06:12:36.376Z,100993.29
2018-07-25T06:15:05.360Z,101003.88
2018-07-25T06:17:33.604Z,101003.47
2018-07-25T06:20:01.828Z,100998.59
2018-07-25T06:22:30.038Z,101002.95
2018-07-25T06:24:58.310Z,101002.64
2018-07-25T06:27:26.513Z,101005.34
2018-07-25T06:29:54.720Z,101002.50
2018-07-25T06:32:22.936Z,101015.18
2018-07-25T06:34:51.201Z,101007.49
2018-07-25T06:37:19.409Z,101015.38
2018-07-25T06:39:47.620Z,101008.95
2018-07-25T06:42:15.854Z,101014.66
2018-07-25T06:44:44.072Z,101020.89
2018-07-25T06:47:12.396Z,101015.09
2018-07-25T06:49:40.609Z,101014.05
2018-07-25T06:52:08.848Z,101018.73
2018-07-25T06:54:37.092Z,101015.28
2018-07-25T06:57:05.672Z,101018.92
2018-07-25T06:59:33.904Z,101015.19
2018-07-25T07:02:02.249Z,101015.81
2018-07-25T07:04:30.452Z,101019.55
2018-07-25T07:06:58.719Z,101024.85
2018-07-25T07:09:26.902Z,101029.84
2018-07-25T07:11:55.168Z,101038.33
2018-07-25T07:14:23.440Z,101039.08
2018-07-25T07:16:51.672Z,101036.90
2018-07-25T07:19:19.892Z,101034.20
2018-07-25T07:21:48.140Z,101033.45
2018-07-25T07:24:16.397Z,101031.89
2018-07-25T07:26:44.628Z,101033.67
2018-07-25T07:29:12.878Z,101032.23
2018-07-25T07:31:41.141Z,101037.02
2018-07-25T07:34:09.369Z,101033.46
2018-07-25T07:36:37.609Z,101029.63
2018-07-25T07:39:09.448Z,101031.40
2018-07-25T07:41:37.705Z,101030.44
2018-07-25T07:44:06.343Z,101028.81
2018-07-25T07:46:34.604Z,101026.44
2018-07-25T07:49:02.856Z,101023.11
2018-07-25T07:51:31.201Z,101030.88
2018-07-25T07:53:59.468Z,101027.86
2018-07-25T07:56:27.717Z,101034.06
2018-07-25T07:58:56.169Z,101037.80
2018-07-25T08:01:24.396Z,101039.25
2018-07-25T08:03:52.620Z,101039.42
2018-07-25T08:06:20.836Z,101038.59
2018-07-25T08:08:49.098Z,101039.21
2018-07-25T08:11:19.564Z,101043.13
2018-07-25T08:13:48.906Z,101045.09
2018-07-25T08:16:17.564Z,101040.63
2018-07-25T08:18:45.792Z,101043.87
2018-07-25T08:21:14.555Z,101041.78
2018-07-25T08:23:43.696Z,101046.73
2018-07-25T08:26:11.996Z,101037.37
2018-07-25T08:28:40.228Z,101037.05
2018-07-25T08:31:08.748Z,101036.02
2018-07-25T08:33:36.957Z,101034.52
2018-07-25T08:36:05.235Z,101039.59
2018-07-25T08:38:37.800Z,101043.02
2018-07-25T08:41:06.475Z,101036.14
2018-07-25T08:43:35.805Z,101039.63
2018-07-25T08:46:04.136Z,101036.18
2018-07-25T08:48:32.596Z,101028.99
2018-07-25T08:51:01.008Z,101024.63
2018-07-25T08:53:29.718Z,101022.70
2018-07-25T08:55:57.937Z,101029.34
2018-07-25T08:58:26.228Z,101031.71
2018-07-25T09:00:54.473Z,101017.47
2018-07-25T09:03:22.832Z,101029.28
2018-07-25T09:05:51.108Z,101031.13
2018-07-25T09:08:19.336Z,101023.63
2018-07-25T09:10:47.533Z,101028.30
2018-07-25T09:13:15.777Z,101023.03
2018-07-25T09:15:44.284Z,101022.59
2018-07-25T09:18:12.615Z,101021.12
2018-07-25T09:20:40.873Z,101024.28
2018-07-25T09:23:09.092Z,101028.83
2018-07-25T09:25:37.327Z,101020.05
2018-07-25T09:28:05.836Z,101018.75
2018-07-25T09:30:34.125Z,101021.85
2018-07-25T09:33:02.376Z,101022.55
2018-07-25T09:35:30.629Z,101019.41
2018-07-25T09:37:58.904Z,101014.13
2018-07-25T09:40:27.161Z,101022.84
2018-07-25T09:42:55.400Z,101020.58
2018-07-25T09:45:23.673Z,101014.94
2018-07-25T09:47:51.906Z,101002.14
2018-07-25T09:50:20.097Z,101015.27
2018-07-25T09:52:48.332Z,101016.45
2018-07-25T09:55:16.601Z,101015.27
2018-07-25T09:57:44.866Z,101014.69
2018-07-25T10:00:17.258Z,101009.39
2018-07-25T10:02:45.432Z,101011.44
2018-07-25T10:05:13.668Z,101012.73
2018-07-25T10:07:42.045Z,101003.06
2018-07-25T10:10:10.189Z,101007.62
2018-07-25T10:12:38.387Z,100996.02
2018-07-25T10:15:06.716Z,101002.17
2018-07-25T10:17:34.826Z,100998.71
2018-07-25T10:20:03.059Z,101002.14
2018-07-25T10:22:31.278Z,100998.08
2018-07-25T10:24:59.733Z,100995.47
2018-07-25T10:27:28.019Z,100992.45
2018-07-25T10:29:56.216Z,100993.69
2018-07-25T10:32:24.408Z,100995.30
2018-07-25T10:34:52.624Z,100989.52
2018-07-25T10:37:20.856Z,100987.34
2018-07-25T10:39:49.058Z,100987.02
2018-07-25T10:42:17.280Z,100981.83
2018-07-25T10:44:45.488Z,100982.19
2018-07-25T10:47:13.704Z,100977.50
2018-07-25T10:49:41.920Z,100986.94
2018-07-25T10:52:10.180Z,100980.17
2018-07-25T10:54:38.396Z,100980.97
2018-07-25T10:57:06.831Z,100982.02
2018-07-25T10:59:35.098Z,100981.17
2018-07-25T11:02:03.416Z,100978.50
2018-07-25T11:04:31.629Z,100978.35
2018-07-25T11:06:59.826Z,100974.05
2018-07-25T11:09:28.067Z,100972.81
2018-07-25T11:11:56.267Z,100966.80
2018-07-25T11:14:24.484Z,100975.46
2018-07-25T11:16:52.697Z,100964.38
2018-07-25T11:19:20.944Z,100964.86
2018-07-25T11:21:49.168Z,100965.23
2018-07-25T11:24:17.376Z,100948.13
2018-07-25T11:26:45.628Z,100953.67
2018-07-25T11:29:13.901Z,100947.47
2018-07-25T11:31:42.176Z,100944.08
2018-07-25T11:34:10.385Z,100943.84
2018-07-25T11:36:38.607Z,100940.64
2018-07-25T11:39:09.512Z,100945.37
2018-07-25T11:41:37.800Z,100942.39
2018-07-25T11:44:06.107Z,100932.64
2018-07-25T11:46:34.413Z,100940.72
2018-07-25T11:49:02.729Z,100933.14
2018-07-25T11:51:30.965Z,100931.55
2018-07-25T11:53:59.917Z,100935.75
2018-07-25T11:56:28.101Z,100940.19
2018-07-25T11:58:56.304Z,100935.00
2018-07-25T12:01:24.511Z,100935.04
2018-07-25T12:03:52.724Z,100933.67
2018-07-25T12:06:20.945Z,100927.14
2018-07-25T12:08:49.159Z,100927.72
2018-07-25T12:11:17.361Z,100923.62
2018-07-25T12:13:45.612Z,100930.19
2018-07-25T12:16:13.816Z,100925.24
2018-07-25T12:18:42.024Z,100917.86
2018-07-25T12:21:10.479Z,100912.08
2018-07-25T12:23:38.652Z,100903.27
2018-07-25T12:26:06.888Z,100902.97
2018-07-25T12:28:35.080Z,100898.25
2018-07-25T12:31:03.298Z,100903.39
2018-07-25T12:33:31.494Z,100896.27
2018-07-25T12:35:59.744Z,100893.22
2018-07-25T12:38:27.960Z,100893.20
2018-07-25T12:40:56.715Z,100891.22
2018-07-25T12:43:24.917Z,100888.70
2018-07-25T12:45:53.160Z,100890.89
2018-07-25T12:48:21.528Z,100893.00
2018-07-25T12:50:49.752Z,100891.85
2018-07-25T12:53:18.039Z,100897.03
2018-07-25T12:55:46.293Z,100889.59
2018-07-25T12:58:14.561Z,100890.97
2018-07-25T13:00:42.756Z,100885.80
2018-07-25T13:03:10.964Z,100891.02
2018-07-25T13:05:39.188Z,100886.39
2018-07-25T13:08:07.404Z,100884.72
2018-07-25T13:10:35.670Z,100884.41
2018-07-25T13:13:03.822Z,100877.20
2018-07-25T13:15:32.085Z,100878.77
2018-07-25T13:18:00.288Z,100880.17
2018-07-25T13:20:28.516Z,100883.48
2018-07-25T13:22:56.806Z,100878.90
2018-07-25T13:25:25.000Z,100877.34
2018-07-25T13:27:53.396Z,100881.66
2018-07-25T13:30:21.600Z,100879.86
2018-07-25T13:32:49.808Z,100884.87
2018-07-25T13:35:18.040Z,100895.91
2018-07-25T13:37:46.300Z,100900.88
2018-07-25T13:40:14.525Z,100888.77
2018-07-25T13:42:42.783Z,100886.28
2018-07-25T13:45:11.009Z,100885.13
2018-07-25T13:47:39.250Z,100881.61
2018-07-25T13:50:07.484Z,100892.92
2018-07-25T13:52:35.680Z,100886.34
2018-07-25T13:55:03.958Z,100881.10
2018-07-25T13:57:32.203Z,100878.34
2018-07-25T14:00:00.409Z,100881.77
2018-07-25T14:02:28.712Z,100888.57
2018-07-25T14:04:56.921Z,100885.78
2018-07-25T14:07:25.128Z,100885.78
2018-07-25T14:09:53.369Z,100881.90
2018-07-25T14:12:21.593Z,100885.66
2018-07-25T14:14:49.798Z,100883.66
2018-07-25T14:17:18.020Z,100879.62
2018-07-25T14:19:46.246Z,100878.52
2018-07-25T14:22:14.465Z,100871.31
2018-07-25T14:24:42.791Z,100872.14
2018-07-25T14:27:11.026Z,100874.58
2018-07-25T14:29:39.220Z,100871.56
2018-07-25T14:32:07.788Z,100870.27
2018-07-25T14:34:36.063Z,100868.07
2018-07-25T14:37:04.391Z,100863.97
2018-07-25T14:39:32.598Z,100869.95
2018-07-25T14:42:00.808Z,100867.00
2018-07-25T14:44:29.042Z,100868.23
2018-07-25T14:46:57.338Z,100869.98
2018-07-25T14:49:25.484Z,100869.23
2018-07-25T14:51:53.771Z,100862.41
2018-07-25T14:54:22.015Z,100871.27
2018-07-25T14:56:50.234Z,100866.09
2018-07-25T14:59:18.656Z,100870.73
2018-07-25T15:01:46.872Z,100861.44
2018-07-25T15:04:15.073Z,100863.91
2018-07-25T15:06:43.302Z,100859.52
2018-07-25T15:09:12.030Z,100867.46
2018-07-25T15:11:40.508Z,100858.16
2018-07-25T15:14:09.187Z,100850.48
2018-07-25T15:16:37.444Z,100843.93
2018-07-25T15:19:05.752Z,100842.55
2018-07-25T15:21:33.997Z,100846.09
2018-07-25T15:24:04.517Z,100846.92
2018-07-25T15:26:32.808Z,100841.71
2018-07-25T15:29:01.652Z,100833.45
2018-07-25T15:31:29.937Z,100833.95
2018-07-25T15:33:58.176Z,100827.02
2018-07-25T15:36:39.874Z,100827.39
2018-07-25T15:39:11.872Z,100831.86
2018-07-25T15:41:40.148Z,100835.55
2018-07-25T15:44:08.372Z,100836.66
2018-07-25T15:46:36.607Z,100833.78
2018-07-25T15:49:05.267Z,100827.31
2018-07-25T15:51:33.524Z,100824.63
2018-07-25T15:54:02.008Z,100821.41
2018-07-25T15:56:30.256Z,100819.80
2018-07-25T15:58:58.464Z,100825.91
2018-07-25T16:01:26.712Z,100816.08
2018-07-25T16:03:54.939Z,100824.91
2018-07-25T16:06:23.750Z,100819.16
2018-07-25T16:08:52.248Z,100818.89
2018-07-25T16:11:20.470Z,100822.80
2018-07-25T16:13:48.848Z,100818.16
2018-07-25T16:16:17.637Z,100814.34
2018-07-25T16:18:46.126Z,100816.00
2018-07-25T16:21:14.344Z,100811.06
2018-07-25T16:23:42.621Z,100811.04
2018-07-25T16:26:10.856Z,100809.95
2018-07-25T16:28:39.138Z,100809.13
2018-07-25T16:31:07.761Z,100811.03
2018-07-25T16:33:36.185Z,100809.41
2018-07-25T16:36:04.445Z,100805.30
2018-07-25T16:38:32.620Z,100803.69
2018-07-25T16:41:00.853Z,100807.48
2018-07-25T16:43:29.084Z,100799.02
2018-07-25T16:45:57.308Z,100799.28
2018-07-25T16:48:25.513Z,100803.91
2018-07-25T16:50:53.753Z,100805.27
2018-07-25T16:53:21.960Z,100800.36
2018-07-25T16:55:50.173Z,100806.36
2018-07-25T16:58:18.409Z,100807.41
2018-07-25T17:00:46.604Z,100812.31
2018-07-25T17:03:15.210Z,100815.33
2018-07-25T17:05:43.444Z,100820.61
2018-07-25T17:08:11.649Z,100814.05
2018-07-25T17:10:39.869Z,100819.27
2018-07-25T17:13:08.072Z,100823.92
2018-07-25T17:15:36.283Z,100831.03
2018-07-25T17:18:04.524Z,100837.30
2018-07-25T17:20:32.832Z,100838.03
2018-07-25T17:23:00.965Z,100839.09
2018-07-25T17:25:29.192Z,100839.56
2018-07-25T17:27:57.419Z,100835.74
2018-07-25T17:30:25.624Z,100845.03
2018-07-25T17:32:53.840Z,100841.53
2018-07-25T17:35:22.095Z,100839.89
2018-07-25T17:37:50.484Z,100840.73
2018-07-25T17:40:18.708Z,100844.58
2018-07-25T17:42:46.940Z,100847.06
2018-07-25T17:45:15.181Z,100854.96
2018-07-25T17:47:43.394Z,100853.30
2018-07-25T17:50:11.617Z,100851.06
2018-07-25T17:52:40.289Z,100850.08
2018-07-25T17:55:08.775Z,100858.43
2018-07-25T17:57:36.968Z,100857.51
2018-07-25T18:00:07.814Z,100861.77
2018-07-25T18:02:36.073Z,100857.84
2018-07-25T18:05:04.307Z,100858.34
2018-07-25T18:07:32.536Z,100856.61
2018-07-25T18:10:00.768Z,100861.45
2018-07-25T18:12:28.980Z,100861.42
2018-07-25T18:14:57.220Z,100867.39
2018-07-25T18:17:25.459Z,100875.23
2018-07-25T18:19:53.662Z,100871.62
2018-07-25T18:22:21.888Z,100872.95
2018-07-25T18:24:50.104Z,100879.45
2018-07-25T18:27:18.332Z,100876.98
2018-07-25T18:29:46.552Z,100882.59
2018-07-25T18:32:14.790Z,100888.80
2018-07-25T18:34:43.024Z,100896.91
2018-07-25T18:37:11.256Z,100896.02
2018-07-25T18:39:39.672Z,100899.78
2018-07-25T18:42:08.377Z,100904.30
2018-07-25T18:44:36.689Z,100903.97
2018-07-25T18:47:05.064Z,100909.59
2018-07-25T18:49:33.297Z,100905.68
2018-07-25T18:52:01.538Z,100912.16
2018-07-25T18:54:29.807Z,100914.52
2018-07-25T18:56:58.043Z,100912.81
2018-07-25T18:59:26.254Z,100919.53
2018-07-25T19:01:54.527Z,100923.50
2018-07-25T19:04:22.744Z,100921.47
2018-07-25T19:06:50.997Z,100925.75
2018-07-25T19:09:19.268Z,100935.24
2018-07-25T19:11:47.712Z,100938.73
2018-07-25T19:14:21.163Z,100940.88
2018-07-25T19:16:49.402Z,100946.81
2018-07-25T19:19:17.616Z,100942.39
2018-07-25T19:21:45.860Z,100948.32
2018-07-25T19:24:14.069Z,100948.84
2018-07-25T19:26:42.305Z,100945.78
2018-07-25T19:29:10.556Z,100957.40
2018-07-25T19:31:38.768Z,100958.95
2018-07-25T19:34:07.003Z,100960.30
2018-07-25T19:36:35.213Z,100956.16
2018-07-25T19:39:05.107Z,100962.86
2018-07-25T19:41:33.312Z,100959.56
2018-07-25T19:44:01.537Z,100966.52
2018-07-25T19:46:29.765Z,100962.71
2018-07-25T19:48:58.031Z,100961.59
2018-07-25T19:51:26.277Z,100955.22
2018-07-25T19:53:54.653Z,100956.23
2018-07-25T19:56:22.889Z,100952.34
2018-07-25T19:58:51.168Z,100956.11
2018-07-25T20:01:19.385Z,100954.11
2018-07-25T20:03:47.624Z,100955.36
2018-07-25T20:06:15.873Z,100956.70
2018-07-25T20:08:44.095Z,100956.11
2018-07-25T20:11:12.348Z,100944.59
2018-07-25T20:13:45.956Z,100940.16
2018-07-25T20:16:14.168Z,100934.09
2018-07-25T20:18:42.423Z,100933.77
2018-07-25T20:21:10.653Z,100934.78
2018-07-25T20:23:38.876Z,100942.05
2018-07-25T20:26:07.108Z,100929.14
2018-07-25T20:28:35.305Z,100928.05
2018-07-25T20:31:03.508Z,100926.58
2018-07-25T20:33:31.724Z,100932.78
2018-07-25T20:35:59.973Z,100927.29
2018-07-25T20:38:28.168Z,100931.84
2018-07-25T20:40:56.469Z,100931.52
2018-07-25T20:43:24.691Z,100928.21
2018-07-25T20:45:52.928Z,100934.36
2018-07-25T20:48:21.188Z,100930.22
2018-07-25T20:50:49.349Z,100932.58
2018-07-25T20:53:17.584Z,100927.30
2018-07-25T20:55:45.807Z,100939.40
2018-07-25T20:58:14.025Z,100941.73
2018-07-25T21:00:42.302Z,100943.20
2018-07-25T21:03:10.508Z,100950.95
2018-07-25T21:05:38.728Z,100945.73
2018-07-25T21:08:06.998Z,100951.39
2018-07-25T21:10:35.253Z,100948.91
2018-07-25T21:13:03.557Z,100950.73
2018-07-25T21:15:31.780Z,100956.16
2018-07-25T21:18:00.041Z,100955.86
2018-07-25T21:20:28.271Z,100957.16
2018-07-25T21:22:56.557Z,100958.12
2018-07-25T21:25:24.793Z,100959.11
2018-07-25T21:27:53.020Z,100974.80
2018-07-25T21:30:21.268Z,100975.56
2018-07-25T21:32:49.469Z,100974.67
2018-07-25T21:35:17.660Z,100972.42
2018-07-25T21:37:45.893Z,100979.70
2018-07-25T21:40:14.137Z,100977.21
2018-07-25T21:42:42.421Z,100983.17
2018-07-25T21:45:10.642Z,100984.23
2018-07-25T21:47:38.888Z,100992.60
2018-07-25T21:50:07.164Z,100994.95
2018-07-25T21:52:35.420Z,100988.63
2018-07-25T21:55:03.747Z,100990.17
2018-07-25T21:57:31.956Z,100986.37
2018-07-25T22:00:00.211Z,100984.95
2018-07-25T22:02:28.412Z,100987.89
2018-07-25T22:04:56.636Z,100994.11
2018-07-25T22:07:24.841Z,100991.33
2018-07-25T22:09:53.084Z,100982.06
2018-07-25T22:12:21.317Z,100985.52
2018-07-25T22:14:49.594Z,100984.92
2018-07-25T22:17:17.801Z,100991.41
2018-07-25T22:19:46.069Z,100984.02
2018-07-25T22:22:14.284Z,100988.84
2018-07-25T22:24:42.504Z,100986.63
2018-07-25T22:27:10.722Z,100995.52
2018-07-25T22:29:38.928Z,100992.50
2018-07-25T22:32:07.222Z,100983.61
2018-07-25T22:34:35.414Z,100987.75
2018-07-25T22:37:03.683Z,100979.73
2018-07-25T22:39:31.980Z,100984.85
2018-07-25T22:42:00.228Z,100987.94
2018-07-25T22:44:28.457Z,100989.37
2018-07-25T22:46:56.680Z,100987.28
2018-07-25T22:49:24.908Z,100986.88
2018-07-25T22:51:53.129Z,100978.67
2018-07-25T22:54:21.408Z,100981.25
2018-07-25T22:56:49.724Z,100983.58
2018-07-25T22:59:17.936Z,100986.66
2018-07-25T23:01:46.144Z,100987.19
2018-07-25T23:04:14.378Z,100981.69
2018-07-25T23:06:42.648Z,100985.92
2018-07-25T23:09:11.788Z,100980.05
2018-07-25T23:11:40.376Z,100981.55
2018-07-25T23:14:08.617Z,100975.77
2018-07-25T23:16:36.832Z,100982.16
2018-07-25T23:19:05.060Z,100978.84
2018-07-25T23:21:33.268Z,100975.83
2018-07-25T23:24:01.586Z,100975.45
2018-07-25T23:26:29.824Z,100965.66
2018-07-25T23:28:58.021Z,100978.98
2018-07-25T23:31:26.253Z,100973.70
2018-07-25T23:33:54.451Z,100967.34
2018-07-25T23:36:22.684Z,100971.85
2018-07-25T23:38:50.892Z,100969.31
2018-07-25T23:41:19.109Z,100975.47
2018-07-25T23:43:47.368Z,100970.41
2018-07-25T23:46:15.556Z,100952.81
2018-07-25T23:48:43.789Z,100964.99
2018-07-25T23:51:12.024Z,100967.61
2018-07-25T23:53:40.248Z,100956.31
2018-07-25T23:56:08.508Z,100970.53
2018-07-25T23:58:36.740Z,100966.39
